Terminal Aerodrome Forecast
Issued by NWS

Home | Current Version | Previous Version | Text Only | Print | Product List | Glossary On
Versions: 1 2 3 4 5 6 7 8 9 10 11 12 13 14 15 16 17 18 19 20 21 22 23
894
FTUS42 KFFC 251949 AAA
TAFPDK
TAF AMD
KPDK 251949Z 2520/2618 16008KT P6SM BKN050
     FM260300 15005KT P6SM VCSH OVC040
     FM260500 15004KT 6SM SHRA OVC040
     FM261000 17008KT 6SM SHRA SCT007 BKN012
     FM261600 17010KT P6SM VCSH OVC012=

USA.gov is the U.S. government's official web portal to all federal, state and local government web resources and services.